createdAt,value
2023-05-19T00:01:57.056Z,1.80
2023-05-19T00:04:32.096Z,2.10
2023-05-19T00:07:08.650Z,1.70
2023-05-19T00:09:43.364Z,1.60
2023-05-19T00:12:19.522Z,1.70
2023-05-19T00:14:54.433Z,1.80
2023-05-19T00:17:28.823Z,1.40
2023-05-19T00:20:08.196Z,1.70
2023-05-19T00:22:44.444Z,1.70
2023-05-19T00:25:18.356Z,1.40
2023-05-19T00:27:52.183Z,1.70
2023-05-19T00:30:26.101Z,1.60
2023-05-19T00:32:59.975Z,1.90
2023-05-19T00:35:33.691Z,1.60
2023-05-19T00:38:07.481Z,1.90
2023-05-19T00:40:41.466Z,1.70
2023-05-19T00:43:16.040Z,1.70
2023-05-19T00:45:50.104Z,1.70
2023-05-19T00:48:23.698Z,1.60
2023-05-19T00:51:02.719Z,1.20
2023-05-19T00:53:37.568Z,1.40
2023-05-19T00:56:11.528Z,1.40
2023-05-19T00:58:45.654Z,1.50
2023-05-19T01:01:21.831Z,1.50
2023-05-19T01:03:59.554Z,1.30
2023-05-19T01:06:33.992Z,1.30
2023-05-19T01:09:08.003Z,1.50
2023-05-19T01:11:41.630Z,1.50
2023-05-19T01:14:16.111Z,1.30
2023-05-19T01:16:56.953Z,1.40
2023-05-19T01:19:53.119Z,1.20
2023-05-19T01:22:55.687Z,1.50
2023-05-19T01:25:54.288Z,1.20
2023-05-19T01:31:09.109Z,1.40
2023-05-19T01:33:45.109Z,1.60
2023-05-19T01:36:20.908Z,1.80
2023-05-19T01:38:57.710Z,1.60
2023-05-19T01:41:32.971Z,1.40
2023-05-19T01:44:07.000Z,1.40
2023-05-19T01:46:41.467Z,1.70
2023-05-19T01:49:15.254Z,1.60
2023-05-19T01:51:52.446Z,1.60
2023-05-19T01:54:26.475Z,2.00
2023-05-19T01:57:07.577Z,2.10
2023-05-19T01:59:54.156Z,1.70
2023-05-19T02:02:45.111Z,1.90
2023-05-19T02:05:30.217Z,1.80
2023-05-19T02:08:13.511Z,1.80
2023-05-19T02:10:53.663Z,1.80
2023-05-19T02:13:31.258Z,2.00
2023-05-19T02:16:07.688Z,1.90
2023-05-19T02:18:46.185Z,2.00
2023-05-19T02:21:19.976Z,2.20
2023-05-19T02:23:54.422Z,2.20
2023-05-19T02:26:27.940Z,2.10
2023-05-19T02:29:01.965Z,1.80
2023-05-19T02:31:35.443Z,2.40
2023-05-19T02:34:09.169Z,2.10
2023-05-19T02:36:44.759Z,2.20
2023-05-19T02:39:19.153Z,2.30
2023-05-19T02:41:54.210Z,2.20
2023-05-19T02:44:28.016Z,2.30
2023-05-19T02:47:02.266Z,2.00
2023-05-19T02:49:36.655Z,2.10
2023-05-19T02:52:10.666Z,2.30
2023-05-19T02:54:44.736Z,2.30
2023-05-19T02:57:18.581Z,2.40
2023-05-19T02:59:52.775Z,2.70
2023-05-19T03:02:26.590Z,2.60
2023-05-19T03:05:05.707Z,2.70
2023-05-19T03:07:39.412Z,3.10
2023-05-19T03:10:14.100Z,2.40
2023-05-19T03:12:47.823Z,2.60
2023-05-19T03:15:23.615Z,2.60
2023-05-19T03:17:57.445Z,3.20
2023-05-19T03:20:32.313Z,2.50
2023-05-19T03:23:05.760Z,3.10
2023-05-19T03:25:39.766Z,3.10
2023-05-19T03:28:13.210Z,2.60
2023-05-19T03:30:49.610Z,3.20
2023-05-19T03:33:28.412Z,2.80
2023-05-19T03:36:02.678Z,3.10
2023-05-19T03:38:38.900Z,3.40
2023-05-19T03:41:12.750Z,3.20
2023-05-19T03:43:46.816Z,2.90
2023-05-19T03:46:21.596Z,3.10
2023-05-19T03:48:58.932Z,3.00
2023-05-19T03:52:03.758Z,2.90
2023-05-19T03:54:43.099Z,2.90
2023-05-19T03:57:17.040Z,2.80
2023-05-19T03:59:50.576Z,2.90
2023-05-19T04:02:24.286Z,2.80
2023-05-19T04:04:58.325Z,3.00
2023-05-19T04:07:31.997Z,3.20
2023-05-19T04:10:08.367Z,3.00
2023-05-19T04:12:42.470Z,3.20
2023-05-19T04:15:16.577Z,2.90
2023-05-19T04:17:50.447Z,3.10
2023-05-19T04:20:25.298Z,2.90
2023-05-19T04:22:59.152Z,3.00
2023-05-19T04:25:33.954Z,3.30
2023-05-19T04:28:08.098Z,3.30
2023-05-19T04:30:42.993Z,3.50
2023-05-19T04:33:16.845Z,3.20
2023-05-19T04:35:52.053Z,3.50
2023-05-19T04:38:26.481Z,3.40
2023-05-19T04:41:02.202Z,3.00
2023-05-19T04:43:36.155Z,2.80
2023-05-19T04:46:13.252Z,2.70
2023-05-19T04:48:48.026Z,2.50
2023-05-19T04:51:21.809Z,2.80
2023-05-19T04:53:56.048Z,2.50
2023-05-19T04:56:30.389Z,3.00
2023-05-19T04:59:04.091Z,2.60
2023-05-19T05:01:41.497Z,2.50
2023-05-19T05:04:15.548Z,2.20
2023-05-19T05:06:49.253Z,2.20
2023-05-19T05:09:24.738Z,2.70
2023-05-19T05:12:00.040Z,3.00
2023-05-19T05:14:35.288Z,2.80
2023-05-19T05:17:12.399Z,2.70
2023-05-19T05:19:47.428Z,2.20
2023-05-19T05:22:22.555Z,2.30
2023-05-19T05:24:57.779Z,2.50
2023-05-19T05:27:31.646Z,2.80
2023-05-19T05:30:05.890Z,2.70
2023-05-19T05:32:39.876Z,2.90
2023-05-19T05:37:51.281Z,2.60
2023-05-19T05:40:25.323Z,2.30
2023-05-19T05:42:59.787Z,2.40
2023-05-19T05:45:35.936Z,2.70
2023-05-19T05:48:12.420Z,3.00
2023-05-19T05:50:47.197Z,2.90
2023-05-19T05:53:27.023Z,2.90
2023-05-19T05:56:02.308Z,2.60
2023-05-19T05:58:44.368Z,2.30
2023-05-19T06:01:18.296Z,2.50
2023-05-19T06:04:03.909Z,2.40
2023-05-19T06:06:39.373Z,2.10
2023-05-19T06:09:13.333Z,2.50
2023-05-19T06:11:46.875Z,2.30
2023-05-19T06:14:20.721Z,2.10
2023-05-19T06:17:11.917Z,2.20
2023-05-19T06:19:48.142Z,2.60
2023-05-19T06:22:22.371Z,2.40
2023-05-19T06:25:00.170Z,2.10
2023-05-19T06:27:34.813Z,2.30
2023-05-19T06:30:11.363Z,2.30
2023-05-19T06:32:54.128Z,2.30
2023-05-19T06:35:28.417Z,3.00
2023-05-19T06:38:02.160Z,2.60
2023-05-19T06:40:37.301Z,2.30
2023-05-19T06:43:11.043Z,2.80
2023-05-19T06:46:00.500Z,2.40
2023-05-19T06:48:35.850Z,2.30
2023-05-19T06:51:11.069Z,2.30
2023-05-19T06:53:49.027Z,2.30
2023-05-19T06:57:12.094Z,2.60
2023-05-19T07:00:14.621Z,2.10
2023-05-19T07:03:09.114Z,2.40
2023-05-19T07:05:50.130Z,2.10
2023-05-19T07:09:02.832Z,2.30
2023-05-19T07:12:12.867Z,2.20
2023-05-19T07:15:22.826Z,2.40
2023-05-19T07:18:17.945Z,2.40
2023-05-19T07:21:24.534Z,2.80
2023-05-19T07:24:51.165Z,2.50
2023-05-19T07:27:25.702Z,2.90
2023-05-19T07:29:59.930Z,2.90
2023-05-19T07:32:33.909Z,2.80
2023-05-19T07:35:08.525Z,3.10
2023-05-19T07:37:42.409Z,2.40
2023-05-19T07:40:16.975Z,3.30
2023-05-19T07:42:51.849Z,2.60
2023-05-19T07:45:26.264Z,2.50
2023-05-19T07:48:00.293Z,3.70
2023-05-19T07:50:34.554Z,2.80
2023-05-19T07:53:08.276Z,3.10
2023-05-19T07:55:41.990Z,2.80
2023-05-19T07:58:16.036Z,2.80
2023-05-19T08:00:49.920Z,3.30
2023-05-19T08:03:24.316Z,3.20
2023-05-19T08:05:58.368Z,2.80
2023-05-19T08:08:33.817Z,3.60
2023-05-19T08:11:08.367Z,2.70
2023-05-19T08:13:42.864Z,2.90
2023-05-19T08:16:16.700Z,3.00
2023-05-19T08:18:50.570Z,3.40
2023-05-19T08:21:24.209Z,3.10
2023-05-19T08:23:58.276Z,3.40
2023-05-19T08:26:32.061Z,3.40
2023-05-19T08:29:05.927Z,3.40
2023-05-19T08:31:39.811Z,2.90
2023-05-19T08:34:13.507Z,3.20
2023-05-19T08:36:48.089Z,4.30
2023-05-19T08:39:27.333Z,3.30
2023-05-19T08:42:00.931Z,4.40
2023-05-19T08:44:35.045Z,3.90
2023-05-19T08:47:14.434Z,3.70
2023-05-19T08:49:54.419Z,3.40
2023-05-19T08:52:34.729Z,3.60
2023-05-19T08:55:17.978Z,4.00
2023-05-19T08:57:52.860Z,4.20
2023-05-19T09:00:27.398Z,3.60
2023-05-19T09:05:40.556Z,3.60
2023-05-19T09:08:15.121Z,4.90
2023-05-19T09:10:49.185Z,4.40
2023-05-19T09:13:23.097Z,4.10
2023-05-19T09:15:58.079Z,4.50
2023-05-19T09:18:32.227Z,4.30
2023-05-19T09:21:06.313Z,3.70
2023-05-19T09:23:41.027Z,4.20
2023-05-19T09:26:16.914Z,4.10
2023-05-19T09:28:50.993Z,4.80
2023-05-19T09:31:24.592Z,4.80
2023-05-19T09:33:58.323Z,4.20
2023-05-19T09:36:32.897Z,3.80
2023-05-19T09:39:16.972Z,4.70
2023-05-19T09:41:53.173Z,4.80
2023-05-19T09:44:29.950Z,4.70
2023-05-19T09:47:03.903Z,4.80
2023-05-19T09:49:37.631Z,4.60
2023-05-19T09:52:12.713Z,5.20
2023-05-19T09:57:30.096Z,4.40
2023-05-19T10:00:04.394Z,5.00
2023-05-19T10:02:38.662Z,4.30
2023-05-19T10:05:17.645Z,5.00
2023-05-19T10:07:54.872Z,5.20
2023-05-19T10:10:30.394Z,4.80
2023-05-19T10:13:05.863Z,4.80
2023-05-19T10:15:50.063Z,5.00
2023-05-19T10:18:32.684Z,4.50
2023-05-19T10:21:07.926Z,5.00
2023-05-19T10:23:42.332Z,5.00
2023-05-19T10:26:17.074Z,5.80
2023-05-19T10:28:52.343Z,5.70
2023-05-19T10:31:27.583Z,5.30
2023-05-19T10:34:26.024Z,5.80
2023-05-19T10:37:10.585Z,5.30
2023-05-19T10:39:46.000Z,5.40
2023-05-19T10:42:28.274Z,5.20
2023-05-19T10:45:15.321Z,5.50
2023-05-19T10:47:52.082Z,5.30
2023-05-19T10:50:25.934Z,5.40
2023-05-19T10:53:00.553Z,5.40
2023-05-19T10:55:53.225Z,5.50
2023-05-19T10:58:52.613Z,5.60
2023-05-19T11:01:32.546Z,5.40
2023-05-19T11:04:14.391Z,5.50
2023-05-19T11:06:54.380Z,5.90
2023-05-19T11:09:37.983Z,5.50
2023-05-19T11:12:14.752Z,5.30
2023-05-19T11:14:48.917Z,5.60
2023-05-19T11:17:24.146Z,5.20
2023-05-19T11:19:59.713Z,5.60
2023-05-19T11:22:36.337Z,4.90
2023-05-19T11:25:11.163Z,6.30
2023-05-19T11:27:48.343Z,5.20
2023-05-19T11:30:22.278Z,4.60
2023-05-19T11:32:58.343Z,4.50
2023-05-19T11:35:36.284Z,5.40
2023-05-19T11:38:10.511Z,5.00
2023-05-19T11:40:45.862Z,6.00
2023-05-19T11:43:19.855Z,5.60
2023-05-19T11:45:55.224Z,5.60
2023-05-19T11:48:31.610Z,5.70
2023-05-19T11:51:05.865Z,6.10
2023-05-19T11:53:39.337Z,5.10
2023-05-19T11:56:15.548Z,5.50
2023-05-19T11:58:49.598Z,5.50
2023-05-19T12:01:27.498Z,5.20
2023-05-19T12:04:01.344Z,5.90
2023-05-19T12:06:35.841Z,6.10
2023-05-19T12:09:11.410Z,5.30
2023-05-19T12:11:45.265Z,5.80
2023-05-19T12:14:19.168Z,5.10
2023-05-19T12:16:53.263Z,5.30
2023-05-19T12:19:28.252Z,5.40
2023-05-19T12:22:03.477Z,6.80
2023-05-19T12:24:39.040Z,5.80
2023-05-19T12:27:20.779Z,5.50
2023-05-19T12:29:55.603Z,5.50
2023-05-19T12:32:30.351Z,5.10
2023-05-19T12:35:06.641Z,5.20
2023-05-19T12:37:43.267Z,5.30
2023-05-19T12:40:18.819Z,5.00
2023-05-19T12:42:59.227Z,5.40
2023-05-19T12:45:38.881Z,4.80
2023-05-19T12:48:17.433Z,4.80
2023-05-19T12:50:53.585Z,5.80
2023-05-19T12:53:29.997Z,5.10
2023-05-19T12:56:03.872Z,5.30
2023-05-19T12:58:39.352Z,5.10
2023-05-19T13:01:20.640Z,5.70
2023-05-19T13:03:55.121Z,4.60
2023-05-19T13:06:29.593Z,5.40
2023-05-19T13:09:03.571Z,5.40
2023-05-19T13:11:36.918Z,4.90
2023-05-19T13:14:10.871Z,5.50
2023-05-19T13:16:44.602Z,4.80
2023-05-19T13:21:57.832Z,5.00
2023-05-19T13:24:31.461Z,5.20
2023-05-19T13:27:06.057Z,5.60
2023-05-19T13:29:39.878Z,5.50
2023-05-19T13:32:13.643Z,5.70
2023-05-19T13:34:47.628Z,4.90
2023-05-19T13:37:21.585Z,5.20
2023-05-19T13:39:55.824Z,5.50
2023-05-19T13:42:29.648Z,5.10
2023-05-19T13:45:03.137Z,5.10
2023-05-19T13:47:36.856Z,5.50
2023-05-19T13:50:11.498Z,5.40
2023-05-19T13:52:45.719Z,5.50
2023-05-19T13:55:19.843Z,6.10
2023-05-19T13:57:54.093Z,5.50
2023-05-19T14:00:28.841Z,5.50
2023-05-19T14:03:02.675Z,5.90
2023-05-19T14:05:37.701Z,5.30
2023-05-19T14:08:12.817Z,5.70
2023-05-19T14:10:47.547Z,5.60
2023-05-19T14:13:32.578Z,5.30
2023-05-19T14:16:10.175Z,5.90
2023-05-19T14:18:44.125Z,5.40
2023-05-19T14:21:18.312Z,5.30
2023-05-19T14:23:51.874Z,5.20
2023-05-19T14:26:28.069Z,5.30
2023-05-19T14:29:04.737Z,6.50
2023-05-19T14:31:39.095Z,5.40
2023-05-19T14:34:13.110Z,5.30
2023-05-19T14:36:47.193Z,5.40
2023-05-19T14:39:21.521Z,5.20
2023-05-19T14:41:56.584Z,5.40
2023-05-19T14:44:34.413Z,5.80
2023-05-19T14:47:11.914Z,5.60
2023-05-19T14:49:46.021Z,5.10
2023-05-19T14:52:20.212Z,5.50
2023-05-19T14:54:53.951Z,6.20
2023-05-19T14:57:28.054Z,5.60
2023-05-19T15:00:02.089Z,4.70
2023-05-19T15:02:35.837Z,5.70
2023-05-19T15:05:12.105Z,6.90
2023-05-19T15:07:49.479Z,10.20
2023-05-19T15:10:24.711Z,11.40
2023-05-19T15:12:59.916Z,6.70
2023-05-19T15:15:34.399Z,5.60
2023-05-19T15:18:08.763Z,5.80
2023-05-19T15:20:42.866Z,5.50
2023-05-19T15:23:16.811Z,5.60
2023-05-19T15:25:51.353Z,5.40
2023-05-19T15:28:27.229Z,6.60
2023-05-19T15:31:00.967Z,5.40
2023-05-19T15:33:34.738Z,5.80
2023-05-19T15:36:09.195Z,5.90
2023-05-19T15:38:42.672Z,6.40
2023-05-19T15:41:16.621Z,5.30
2023-05-19T15:43:50.575Z,4.70
2023-05-19T15:46:24.213Z,5.30
2023-05-19T15:48:58.221Z,5.40
2023-05-19T15:51:32.151Z,6.10
2023-05-19T15:54:05.834Z,5.70
2023-05-19T15:56:39.794Z,5.30
2023-05-19T15:59:13.576Z,5.80
2023-05-19T16:01:47.627Z,5.40
2023-05-19T16:04:21.995Z,5.40
2023-05-19T16:06:55.698Z,5.60
2023-05-19T16:09:29.672Z,6.10
2023-05-19T16:12:03.597Z,5.80
2023-05-19T16:14:38.220Z,5.30
2023-05-19T16:17:14.161Z,5.40
2023-05-19T16:19:48.501Z,5.10
2023-05-19T16:22:25.331Z,5.20
2023-05-19T16:24:58.891Z,5.60
2023-05-19T16:27:33.050Z,5.60
2023-05-19T16:30:07.648Z,5.80
2023-05-19T16:32:41.310Z,5.10
2023-05-19T16:35:15.670Z,5.60
2023-05-19T16:37:49.639Z,5.40
2023-05-19T16:40:23.100Z,5.50
2023-05-19T16:42:57.643Z,5.60
2023-05-19T16:45:31.702Z,5.90
2023-05-19T16:48:05.372Z,5.50
2023-05-19T16:50:40.035Z,5.90
2023-05-19T16:53:13.648Z,5.80
2023-05-19T16:55:47.727Z,5.60
2023-05-19T16:58:21.265Z,5.60
2023-05-19T17:00:58.816Z,6.00
2023-05-19T17:03:32.731Z,5.90
2023-05-19T17:06:06.508Z,6.30
2023-05-19T17:08:40.168Z,5.60
2023-05-19T17:11:14.039Z,5.90
2023-05-19T17:13:47.855Z,6.30
2023-05-19T17:16:22.027Z,6.80
2023-05-19T17:18:56.341Z,7.00
2023-05-19T17:21:29.745Z,6.20
2023-05-19T17:24:03.848Z,5.90
2023-05-19T17:26:37.823Z,6.50
2023-05-19T17:29:11.841Z,7.00
2023-05-19T17:31:45.651Z,6.70
2023-05-19T17:34:19.534Z,6.20
2023-05-19T17:36:53.427Z,16.30
2023-05-19T17:39:27.266Z,16.90
2023-05-19T17:42:01.030Z,10.30
2023-05-19T17:44:35.054Z,9.80
2023-05-19T17:47:08.958Z,7.80
2023-05-19T17:49:43.126Z,7.70
2023-05-19T17:52:19.670Z,7.80
2023-05-19T17:54:54.833Z,10.50
2023-05-19T17:57:31.757Z,17.70
2023-05-19T18:00:06.951Z,12.60
2023-05-19T18:02:44.502Z,9.20
2023-05-19T18:05:21.063Z,12.90
2023-05-19T18:07:55.959Z,33.60
2023-05-19T18:10:32.091Z,10.30
2023-05-19T18:13:06.167Z,16.70
2023-05-19T18:15:40.252Z,17.70
2023-05-19T18:18:14.128Z,23.00
2023-05-19T18:20:48.647Z,33.00
2023-05-19T18:23:22.567Z,21.50
2023-05-19T18:25:56.232Z,16.40
2023-05-19T18:28:30.517Z,23.10
2023-05-19T18:31:05.885Z,19.00
2023-05-19T18:33:39.414Z,12.20
2023-05-19T18:36:13.868Z,9.30
2023-05-19T18:38:48.317Z,9.70
2023-05-19T18:41:22.010Z,8.30
2023-05-19T18:43:56.189Z,7.10
2023-05-19T18:46:30.352Z,8.90
2023-05-19T18:49:04.994Z,6.50
2023-05-19T18:51:38.964Z,6.60
2023-05-19T18:54:12.912Z,6.70
2023-05-19T18:56:46.648Z,7.10
2023-05-19T18:59:20.952Z,8.10
2023-05-19T19:01:55.683Z,7.70
2023-05-19T19:04:30.133Z,10.60
2023-05-19T19:07:04.454Z,11.20
2023-05-19T19:09:37.957Z,11.60
2023-05-19T19:12:12.013Z,11.50
2023-05-19T19:14:46.373Z,11.90
2023-05-19T19:17:20.427Z,12.80
2023-05-19T19:19:54.459Z,11.70
2023-05-19T19:22:28.673Z,12.10
2023-05-19T19:25:02.881Z,11.00
2023-05-19T19:27:36.801Z,9.90
2023-05-19T19:30:13.048Z,11.00
2023-05-19T19:32:47.280Z,9.90
2023-05-19T19:35:21.329Z,9.00
2023-05-19T19:37:55.160Z,8.10
2023-05-19T19:40:29.739Z,8.00
2023-05-19T19:43:03.645Z,8.20
2023-05-19T19:45:39.696Z,8.40
2023-05-19T19:48:14.183Z,7.60
2023-05-19T19:50:53.465Z,7.10
2023-05-19T19:53:27.635Z,6.40
2023-05-19T19:56:02.984Z,6.50
2023-05-19T19:58:36.998Z,8.20
2023-05-19T20:01:10.482Z,7.60
2023-05-19T20:03:44.552Z,8.20
2023-05-19T20:06:18.777Z,8.60
2023-05-19T20:08:52.264Z,11.60
2023-05-19T20:11:27.174Z,7.70
2023-05-19T20:14:00.865Z,9.20
2023-05-19T20:16:34.738Z,11.50
2023-05-19T20:19:09.361Z,14.90
2023-05-19T20:21:43.290Z,30.30
2023-05-19T20:24:17.258Z,14.10
2023-05-19T20:26:50.874Z,16.30
2023-05-19T20:29:24.374Z,14.60
2023-05-19T20:31:58.237Z,10.60
2023-05-19T20:34:32.157Z,6.90
2023-05-19T20:37:06.284Z,9.10
2023-05-19T20:39:40.274Z,7.10
2023-05-19T20:42:14.329Z,7.10
2023-05-19T20:44:48.112Z,7.90
2023-05-19T20:47:21.828Z,7.40
2023-05-19T20:49:55.648Z,7.40
2023-05-19T20:52:29.318Z,7.60
2023-05-19T20:55:03.323Z,7.30
2023-05-19T20:57:37.582Z,6.80
2023-05-19T21:00:13.429Z,6.90
2023-05-19T21:02:47.119Z,7.50
2023-05-19T21:05:21.806Z,6.40
2023-05-19T21:07:55.903Z,6.30
2023-05-19T21:10:30.218Z,7.20
2023-05-19T21:13:04.373Z,7.50
2023-05-19T21:15:37.913Z,7.00
2023-05-19T21:18:12.262Z,7.40
2023-05-19T21:20:46.584Z,7.10
2023-05-19T21:23:20.715Z,6.30
2023-05-19T21:25:55.393Z,6.60
2023-05-19T21:28:29.401Z,7.00
2023-05-19T21:31:02.949Z,6.90
2023-05-19T21:33:37.594Z,7.90
2023-05-19T21:36:11.855Z,7.80
2023-05-19T21:38:45.441Z,6.90
2023-05-19T21:41:19.060Z,6.70
2023-05-19T21:43:52.736Z,7.10
2023-05-19T21:46:28.236Z,7.50
2023-05-19T21:49:01.997Z,7.10
2023-05-19T21:51:36.254Z,8.00
2023-05-19T21:54:10.491Z,8.70
2023-05-19T21:56:44.388Z,7.80
2023-05-19T21:59:18.535Z,7.60
2023-05-19T22:01:52.500Z,7.20
2023-05-19T22:04:27.474Z,7.80
2023-05-19T22:07:01.881Z,8.00
2023-05-19T22:09:35.857Z,8.30
2023-05-19T22:12:11.203Z,8.30
2023-05-19T22:14:45.062Z,7.40
2023-05-19T22:17:18.987Z,8.10
2023-05-19T22:19:52.971Z,7.10
2023-05-19T22:22:27.191Z,7.60
2023-05-19T22:25:00.880Z,8.00
2023-05-19T22:27:34.712Z,8.40
2023-05-19T22:30:10.044Z,8.00
2023-05-19T22:32:44.015Z,7.70
2023-05-19T22:35:18.160Z,7.80
2023-05-19T22:37:51.878Z,6.90
2023-05-19T22:40:25.821Z,7.70
2023-05-19T22:42:59.488Z,8.00
2023-05-19T22:45:33.426Z,8.40
2023-05-19T22:48:08.588Z,7.50
2023-05-19T22:50:42.542Z,8.50
2023-05-19T22:53:16.684Z,8.80
2023-05-19T22:55:50.418Z,8.70
2023-05-19T22:58:24.097Z,9.40
2023-05-19T23:00:57.947Z,8.90
2023-05-19T23:03:31.741Z,9.60
2023-05-19T23:06:05.594Z,8.90
2023-05-19T23:08:39.496Z,9.30
2023-05-19T23:11:13.005Z,9.00
2023-05-19T23:13:47.114Z,8.90
2023-05-19T23:16:21.033Z,8.50
2023-05-19T23:18:58.493Z,8.90
2023-05-19T23:21:42.930Z,9.10
2023-05-19T23:24:16.848Z,9.10
2023-05-19T23:26:51.087Z,9.70
2023-05-19T23:29:25.036Z,8.50
2023-05-19T23:31:58.644Z,8.40
2023-05-19T23:34:32.241Z,8.50
2023-05-19T23:37:06.214Z,8.30
2023-05-19T23:39:40.240Z,8.20
2023-05-19T23:42:14.327Z,7.90
2023-05-19T23:44:47.729Z,7.80
2023-05-19T23:47:21.832Z,7.90
2023-05-19T23:49:55.569Z,9.00
2023-05-19T23:52:29.597Z,7.80
2023-05-19T23:55:03.951Z,8.30
2023-05-19T23:57:38.265Z,8.60
